Terminal Aerodrome Forecast
Issued by NWS Cleveland, OH

Home | Current Version | Previous Version | Text Only | Print | Product List | Glossary Off
Versions: 1 2 3 4 5 6 7 8 9 10 11 12 13 14 15 16 17 18

000
FTUS41 KCLE 290500
TAFTOL
TAF
KTOL 290528Z 2906/3006 15004KT P6SM OVC250
     FM291100 17012G16KT P6SM OVC050
      TEMPO 2912/2913 5SM -FZRA BR OVC012
     FM291300 19012G18KT 4SM -FZRA BR OVC012
      TEMPO 2914/2917 2SM -FZRAPL BR OVC008
     FM291700 23009KT 1 1/2SM -RA BR OVC007
     FM292000 28010G20KT 2SM -SN BR OVC007
     FM292200 29018G25KT 4SM -SN BR OVC015
     FM300400 29020G25KT P6SM BKN050=

USA.gov is the U.S. government's official web portal to all federal, state and local government web resources and services.